sensor_id;sensor_type;location;lat;lon;timestamp;P1;durP1;ratioP1;P2;durP2;ratioP2
48881;SDS011;57063;51.406;-2.402;2023-06-14T00:00:32;10.43;;;4.82;;
48881;SDS011;57063;51.406;-2.402;2023-06-14T00:02:59;7.55;;;4.50;;
48881;SDS011;57063;51.406;-2.402;2023-06-14T00:05:25;10.60;;;4.30;;
48881;SDS011;57063;51.406;-2.402;2023-06-14T00:07:51;9.05;;;4.30;;
48881;SDS011;57063;51.406;-2.402;2023-06-14T00:10:18;8.32;;;4.55;;
48881;SDS011;57063;51.406;-2.402;2023-06-14T00:12:44;7.82;;;3.95;;
48881;SDS011;57063;51.406;-2.402;2023-06-14T00:15:09;7.20;;;4.30;;
48881;SDS011;57063;51.406;-2.402;2023-06-14T00:17:35;5.80;;;4.07;;
48881;SDS011;57063;51.406;-2.402;2023-06-14T00:20:01;6.57;;;4.28;;
48881;SDS011;57063;51.406;-2.402;2023-06-14T00:22:30;5.95;;;4.35;;
48881;SDS011;57063;51.406;-2.402;2023-06-14T00:24:56;6.30;;;4.68;;
48881;SDS011;57063;51.406;-2.402;2023-06-14T00:27:22;9.60;;;4.63;;
48881;SDS011;57063;51.406;-2.402;2023-06-14T00:29:47;11.70;;;4.78;;
48881;SDS011;57063;51.406;-2.402;2023-06-14T00:32:13;9.57;;;4.93;;
48881;SDS011;57063;51.406;-2.402;2023-06-14T00:34:38;6.13;;;4.35;;
48881;SDS011;57063;51.406;-2.402;2023-06-14T00:37:03;11.50;;;4.38;;
48881;SDS011;57063;51.406;-2.402;2023-06-14T00:39:29;6.78;;;4.00;;
48881;SDS011;57063;51.406;-2.402;2023-06-14T00:41:54;9.05;;;4.03;;
48881;SDS011;57063;51.406;-2.402;2023-06-14T00:44:20;5.07;;;4.22;;
48881;SDS011;57063;51.406;-2.402;2023-06-14T00:46:46;10.30;;;4.88;;
48881;SDS011;57063;51.406;-2.402;2023-06-14T00:49:12;10.70;;;4.65;;
48881;SDS011;57063;51.406;-2.402;2023-06-14T00:51:40;7.57;;;4.65;;
48881;SDS011;57063;51.406;-2.402;2023-06-14T00:54:06;7.70;;;4.78;;
48881;SDS011;57063;51.406;-2.402;2023-06-14T00:56:32;10.88;;;4.63;;
48881;SDS011;57063;51.406;-2.402;2023-06-14T00:58:57;7.43;;;3.83;;
48881;SDS011;57063;51.406;-2.402;2023-06-14T01:01:23;9.52;;;4.20;;
48881;SDS011;57063;51.406;-2.402;2023-06-14T01:03:49;11.15;;;4.15;;
48881;SDS011;57063;51.406;-2.402;2023-06-14T01:06:23;6.72;;;4.70;;
48881;SDS011;57063;51.406;-2.402;2023-06-14T01:09:13;11.18;;;4.10;;
48881;SDS011;57063;51.406;-2.402;2023-06-14T01:12:00;7.05;;;4.13;;
48881;SDS011;57063;51.406;-2.402;2023-06-14T01:14:41;9.70;;;3.63;;
48881;SDS011;57063;51.406;-2.402;2023-06-14T01:17:07;6.35;;;4.05;;
48881;SDS011;57063;51.406;-2.402;2023-06-14T01:19:40;6.28;;;3.58;;
48881;SDS011;57063;51.406;-2.402;2023-06-14T01:22:07;9.95;;;4.25;;
48881;SDS011;57063;51.406;-2.402;2023-06-14T01:24:33;13.27;;;3.88;;
48881;SDS011;57063;51.406;-2.402;2023-06-14T01:27:00;9.13;;;4.20;;
48881;SDS011;57063;51.406;-2.402;2023-06-14T01:29:27;7.00;;;3.83;;
48881;SDS011;57063;51.406;-2.402;2023-06-14T01:31:57;7.22;;;3.75;;
48881;SDS011;57063;51.406;-2.402;2023-06-14T01:34:23;8.27;;;3.63;;
48881;SDS011;57063;51.406;-2.402;2023-06-14T01:36:49;5.32;;;2.97;;
48881;SDS011;57063;51.406;-2.402;2023-06-14T01:39:15;7.25;;;3.40;;
48881;SDS011;57063;51.406;-2.402;2023-06-14T01:41:42;8.35;;;3.53;;
48881;SDS011;57063;51.406;-2.402;2023-06-14T01:44:10;6.53;;;3.30;;
48881;SDS011;57063;51.406;-2.402;2023-06-14T01:46:38;8.18;;;3.65;;
48881;SDS011;57063;51.406;-2.402;2023-06-14T01:49:05;5.38;;;3.45;;
48881;SDS011;57063;51.406;-2.402;2023-06-14T01:51:32;4.88;;;3.13;;
48881;SDS011;57063;51.406;-2.402;2023-06-14T01:53:57;7.35;;;4.03;;
48881;SDS011;57063;51.406;-2.402;2023-06-14T01:56:22;10.20;;;4.53;;
48881;SDS011;57063;51.406;-2.402;2023-06-14T01:58:48;8.15;;;3.55;;
48881;SDS011;57063;51.406;-2.402;2023-06-14T02:01:14;5.65;;;3.88;;
48881;SDS011;57063;51.406;-2.402;2023-06-14T02:03:41;6.45;;;3.42;;
48881;SDS011;57063;51.406;-2.402;2023-06-14T02:06:07;10.82;;;3.05;;
48881;SDS011;57063;51.406;-2.402;2023-06-14T02:08:32;8.07;;;3.58;;
48881;SDS011;57063;51.406;-2.402;2023-06-14T02:10:58;5.50;;;3.20;;
48881;SDS011;57063;51.406;-2.402;2023-06-14T02:13:23;5.75;;;3.50;;
48881;SDS011;57063;51.406;-2.402;2023-06-14T02:15:48;6.53;;;3.58;;
48881;SDS011;57063;51.406;-2.402;2023-06-14T02:18:18;9.60;;;3.83;;
48881;SDS011;57063;51.406;-2.402;2023-06-14T02:20:43;7.03;;;3.30;;
48881;SDS011;57063;51.406;-2.402;2023-06-14T02:23:08;6.90;;;3.45;;
48881;SDS011;57063;51.406;-2.402;2023-06-14T02:25:34;6.65;;;3.63;;
48881;SDS011;57063;51.406;-2.402;2023-06-14T02:27:59;13.80;;;3.38;;
48881;SDS011;57063;51.406;-2.402;2023-06-14T02:30:25;10.88;;;3.22;;
48881;SDS011;57063;51.406;-2.402;2023-06-14T02:32:50;8.88;;;3.80;;
48881;SDS011;57063;51.406;-2.402;2023-06-14T02:35:16;7.50;;;3.30;;
48881;SDS011;57063;51.406;-2.402;2023-06-14T02:37:41;5.97;;;2.90;;
48881;SDS011;57063;51.406;-2.402;2023-06-14T02:40:07;6.38;;;3.00;;
48881;SDS011;57063;51.406;-2.402;2023-06-14T02:42:34;4.35;;;2.92;;
48881;SDS011;57063;51.406;-2.402;2023-06-14T02:44:59;7.90;;;3.25;;
48881;SDS011;57063;51.406;-2.402;2023-06-14T02:47:25;6.80;;;3.47;;
48881;SDS011;57063;51.406;-2.402;2023-06-14T02:49:50;9.43;;;3.08;;
48881;SDS011;57063;51.406;-2.402;2023-06-14T02:52:16;8.45;;;3.70;;
48881;SDS011;57063;51.406;-2.402;2023-06-14T02:54:41;3.70;;;2.83;;
48881;SDS011;57063;51.406;-2.402;2023-06-14T02:57:07;7.15;;;3.00;;
48881;SDS011;57063;51.406;-2.402;2023-06-14T02:59:33;4.38;;;2.83;;
48881;SDS011;57063;51.406;-2.402;2023-06-14T03:01:59;4.85;;;3.00;;
48881;SDS011;57063;51.406;-2.402;2023-06-14T03:04:24;6.75;;;3.25;;
48881;SDS011;57063;51.406;-2.402;2023-06-14T03:06:51;5.85;;;2.70;;
48881;SDS011;57063;51.406;-2.402;2023-06-14T03:09:18;10.68;;;3.60;;
48881;SDS011;57063;51.406;-2.402;2023-06-14T03:11:44;4.95;;;2.63;;
48881;SDS011;57063;51.406;-2.402;2023-06-14T03:14:09;4.75;;;2.95;;
48881;SDS011;57063;51.406;-2.402;2023-06-14T03:16:36;5.53;;;2.88;;
48881;SDS011;57063;51.406;-2.402;2023-06-14T03:19:02;6.95;;;2.92;;
48881;SDS011;57063;51.406;-2.402;2023-06-14T03:21:27;4.25;;;2.70;;
48881;SDS011;57063;51.406;-2.402;2023-06-14T03:23:53;6.22;;;3.88;;
48881;SDS011;57063;51.406;-2.402;2023-06-14T03:26:19;9.07;;;2.70;;
48881;SDS011;57063;51.406;-2.402;2023-06-14T03:28:44;10.52;;;2.70;;
48881;SDS011;57063;51.406;-2.402;2023-06-14T03:31:11;2.75;;;2.30;;
48881;SDS011;57063;51.406;-2.402;2023-06-14T03:33:37;6.72;;;3.33;;
48881;SDS011;57063;51.406;-2.402;2023-06-14T03:36:02;8.60;;;3.20;;
48881;SDS011;57063;51.406;-2.402;2023-06-14T03:38:28;5.57;;;3.55;;
48881;SDS011;57063;51.406;-2.402;2023-06-14T03:40:53;6.15;;;3.38;;
48881;SDS011;57063;51.406;-2.402;2023-06-14T03:43:18;8.10;;;3.17;;
48881;SDS011;57063;51.406;-2.402;2023-06-14T03:45:44;6.28;;;3.00;;
48881;SDS011;57063;51.406;-2.402;2023-06-14T03:48:09;13.40;;;3.72;;
48881;SDS011;57063;51.406;-2.402;2023-06-14T03:50:35;8.38;;;2.90;;
48881;SDS011;57063;51.406;-2.402;2023-06-14T03:53:03;10.48;;;3.35;;
48881;SDS011;57063;51.406;-2.402;2023-06-14T03:55:29;6.57;;;2.60;;
48881;SDS011;57063;51.406;-2.402;2023-06-14T03:57:56;9.57;;;3.17;;
48881;SDS011;57063;51.406;-2.402;2023-06-14T04:00:22;6.97;;;3.45;;
48881;SDS011;57063;51.406;-2.402;2023-06-14T04:02:47;6.28;;;3.80;;
48881;SDS011;57063;51.406;-2.402;2023-06-14T04:05:13;9.98;;;4.18;;
48881;SDS011;57063;51.406;-2.402;2023-06-14T04:07:41;9.68;;;3.90;;
48881;SDS011;57063;51.406;-2.402;2023-06-14T04:10:10;10.05;;;3.10;;
48881;SDS011;57063;51.406;-2.402;2023-06-14T04:12:36;13.20;;;3.53;;
48881;SDS011;57063;51.406;-2.402;2023-06-14T04:15:01;5.75;;;3.30;;
48881;SDS011;57063;51.406;-2.402;2023-06-14T04:17:27;6.93;;;2.67;;
48881;SDS011;57063;51.406;-2.402;2023-06-14T04:19:53;6.90;;;3.03;;
48881;SDS011;57063;51.406;-2.402;2023-06-14T04:22:18;10.13;;;3.47;;
48881;SDS011;57063;51.406;-2.402;2023-06-14T04:24:44;8.27;;;3.20;;
48881;SDS011;57063;51.406;-2.402;2023-06-14T04:27:09;8.27;;;3.55;;
48881;SDS011;57063;51.406;-2.402;2023-06-14T04:29:35;7.03;;;2.78;;
48881;SDS011;57063;51.406;-2.402;2023-06-14T04:32:01;8.95;;;3.20;;
48881;SDS011;57063;51.406;-2.402;2023-06-14T04:34:26;6.75;;;2.95;;
48881;SDS011;57063;51.406;-2.402;2023-06-14T04:36:57;6.87;;;2.40;;
48881;SDS011;57063;51.406;-2.402;2023-06-14T04:39:24;8.07;;;3.00;;
48881;SDS011;57063;51.406;-2.402;2023-06-14T04:41:51;7.07;;;2.95;;
48881;SDS011;57063;51.406;-2.402;2023-06-14T04:44:18;5.20;;;2.58;;
48881;SDS011;57063;51.406;-2.402;2023-06-14T04:46:44;6.35;;;2.85;;
48881;SDS011;57063;51.406;-2.402;2023-06-14T04:49:13;11.15;;;2.78;;
48881;SDS011;57063;51.406;-2.402;2023-06-14T04:51:42;7.07;;;3.05;;
48881;SDS011;57063;51.406;-2.402;2023-06-14T04:54:08;10.15;;;3.70;;
48881;SDS011;57063;51.406;-2.402;2023-06-14T04:56:40;7.57;;;2.65;;
48881;SDS011;57063;51.406;-2.402;2023-06-14T04:59:07;6.32;;;3.13;;
48881;SDS011;57063;51.406;-2.402;2023-06-14T05:01:33;8.07;;;3.30;;
48881;SDS011;57063;51.406;-2.402;2023-06-14T05:03:59;11.18;;;3.28;;
48881;SDS011;57063;51.406;-2.402;2023-06-14T05:06:25;9.63;;;3.88;;
48881;SDS011;57063;51.406;-2.402;2023-06-14T05:08:52;5.30;;;3.20;;
48881;SDS011;57063;51.406;-2.402;2023-06-14T05:11:18;4.82;;;2.72;;
48881;SDS011;57063;51.406;-2.402;2023-06-14T05:13:43;6.38;;;3.20;;
48881;SDS011;57063;51.406;-2.402;2023-06-14T05:16:10;5.60;;;3.03;;
48881;SDS011;57063;51.406;-2.402;2023-06-14T05:18:36;7.00;;;2.97;;
48881;SDS011;57063;51.406;-2.402;2023-06-14T05:21:02;10.25;;;3.80;;
48881;SDS011;57063;51.406;-2.402;2023-06-14T05:23:29;8.65;;;2.60;;
48881;SDS011;57063;51.406;-2.402;2023-06-14T05:25:55;12.43;;;3.63;;
48881;SDS011;57063;51.406;-2.402;2023-06-14T05:28:21;5.15;;;2.80;;
48881;SDS011;57063;51.406;-2.402;2023-06-14T05:30:47;9.10;;;3.13;;
48881;SDS011;57063;51.406;-2.402;2023-06-14T05:33:12;5.50;;;2.92;;
48881;SDS011;57063;51.406;-2.402;2023-06-14T05:35:38;10.30;;;3.45;;
48881;SDS011;57063;51.406;-2.402;2023-06-14T05:38:03;7.10;;;3.35;;
48881;SDS011;57063;51.406;-2.402;2023-06-14T05:40:28;9.05;;;4.03;;
48881;SDS011;57063;51.406;-2.402;2023-06-14T05:42:54;14.32;;;3.35;;
48881;SDS011;57063;51.406;-2.402;2023-06-14T05:45:19;10.80;;;3.35;;
48881;SDS011;57063;51.406;-2.402;2023-06-14T05:47:45;9.60;;;4.05;;
48881;SDS011;57063;51.406;-2.402;2023-06-14T05:50:10;7.38;;;2.90;;
48881;SDS011;57063;51.406;-2.402;2023-06-14T05:52:36;6.07;;;2.95;;
48881;SDS011;57063;51.406;-2.402;2023-06-14T05:55:02;6.57;;;2.70;;
48881;SDS011;57063;51.406;-2.402;2023-06-14T05:57:28;6.03;;;2.83;;
48881;SDS011;57063;51.406;-2.402;2023-06-14T05:59:54;7.78;;;3.10;;
48881;SDS011;57063;51.406;-2.402;2023-06-14T06:02:19;13.88;;;3.40;;
48881;SDS011;57063;51.406;-2.402;2023-06-14T06:04:45;6.20;;;2.92;;
48881;SDS011;57063;51.406;-2.402;2023-06-14T06:07:10;5.40;;;2.50;;
48881;SDS011;57063;51.406;-2.402;2023-06-14T06:09:35;8.48;;;3.38;;
48881;SDS011;57063;51.406;-2.402;2023-06-14T06:12:01;6.00;;;3.25;;
48881;SDS011;57063;51.406;-2.402;2023-06-14T06:14:26;8.40;;;3.13;;
48881;SDS011;57063;51.406;-2.402;2023-06-14T06:16:52;8.35;;;3.00;;
48881;SDS011;57063;51.406;-2.402;2023-06-14T06:19:18;10.90;;;2.97;;
48881;SDS011;57063;51.406;-2.402;2023-06-14T06:21:44;10.00;;;2.10;;
48881;SDS011;57063;51.406;-2.402;2023-06-14T06:24:09;7.65;;;2.58;;
48881;SDS011;57063;51.406;-2.402;2023-06-14T06:26:34;7.85;;;2.50;;
48881;SDS011;57063;51.406;-2.402;2023-06-14T06:29:00;6.88;;;2.63;;
48881;SDS011;57063;51.406;-2.402;2023-06-14T06:31:25;8.70;;;2.63;;
48881;SDS011;57063;51.406;-2.402;2023-06-14T06:33:52;7.20;;;2.70;;
48881;SDS011;57063;51.406;-2.402;2023-06-14T06:36:19;6.32;;;2.20;;
48881;SDS011;57063;51.406;-2.402;2023-06-14T06:38:45;11.75;;;2.80;;
48881;SDS011;57063;51.406;-2.402;2023-06-14T06:41:11;9.80;;;2.38;;
48881;SDS011;57063;51.406;-2.402;2023-06-14T06:43:36;9.25;;;2.53;;
48881;SDS011;57063;51.406;-2.402;2023-06-14T06:46:01;8.50;;;2.58;;
48881;SDS011;57063;51.406;-2.402;2023-06-14T06:48:27;8.32;;;2.55;;
48881;SDS011;57063;51.406;-2.402;2023-06-14T06:50:53;5.88;;;2.60;;
48881;SDS011;57063;51.406;-2.402;2023-06-14T06:53:18;5.07;;;2.00;;
48881;SDS011;57063;51.406;-2.402;2023-06-14T06:55:44;6.97;;;2.33;;
48881;SDS011;57063;51.406;-2.402;2023-06-14T06:58:09;9.80;;;2.53;;
48881;SDS011;57063;51.406;-2.402;2023-06-14T07:00:35;6.72;;;2.33;;
48881;SDS011;57063;51.406;-2.402;2023-06-14T07:03:00;7.68;;;2.42;;
48881;SDS011;57063;51.406;-2.402;2023-06-14T07:05:26;6.40;;;2.40;;
48881;SDS011;57063;51.406;-2.402;2023-06-14T07:07:51;5.95;;;2.45;;
48881;SDS011;57063;51.406;-2.402;2023-06-14T07:10:18;12.45;;;3.28;;
48881;SDS011;57063;51.406;-2.402;2023-06-14T07:12:44;7.55;;;2.20;;
48881;SDS011;57063;51.406;-2.402;2023-06-14T07:15:09;10.32;;;2.53;;
48881;SDS011;57063;51.406;-2.402;2023-06-14T07:17:35;7.90;;;2.40;;
48881;SDS011;57063;51.406;-2.402;2023-06-14T07:20:02;7.97;;;2.70;;
48881;SDS011;57063;51.406;-2.402;2023-06-14T07:22:36;8.52;;;2.45;;
48881;SDS011;57063;51.406;-2.402;2023-06-14T07:25:02;6.10;;;2.42;;
48881;SDS011;57063;51.406;-2.402;2023-06-14T07:27:28;13.15;;;2.58;;
48881;SDS011;57063;51.406;-2.402;2023-06-14T07:29:53;7.78;;;2.30;;
48881;SDS011;57063;51.406;-2.402;2023-06-14T07:32:18;11.32;;;2.70;;
48881;SDS011;57063;51.406;-2.402;2023-06-14T07:34:45;9.15;;;2.28;;
48881;SDS011;57063;51.406;-2.402;2023-06-14T07:37:10;7.72;;;2.10;;
48881;SDS011;57063;51.406;-2.402;2023-06-14T07:39:35;8.50;;;2.47;;
48881;SDS011;57063;51.406;-2.402;2023-06-14T07:42:01;6.25;;;2.40;;
48881;SDS011;57063;51.406;-2.402;2023-06-14T07:44:29;6.80;;;1.90;;
48881;SDS011;57063;51.406;-2.402;2023-06-14T07:46:56;5.53;;;1.80;;
48881;SDS011;57063;51.406;-2.402;2023-06-14T07:49:23;6.88;;;2.25;;
48881;SDS011;57063;51.406;-2.402;2023-06-14T07:51:48;6.05;;;1.85;;
48881;SDS011;57063;51.406;-2.402;2023-06-14T07:54:16;4.93;;;2.00;;
48881;SDS011;57063;51.406;-2.402;2023-06-14T07:56:41;4.55;;;2.00;;
48881;SDS011;57063;51.406;-2.402;2023-06-14T07:59:07;7.28;;;2.35;;
48881;SDS011;57063;51.406;-2.402;2023-06-14T08:01:32;6.18;;;2.15;;
48881;SDS011;57063;51.406;-2.402;2023-06-14T08:03:58;13.38;;;2.78;;
48881;SDS011;57063;51.406;-2.402;2023-06-14T08:06:24;4.78;;;2.03;;
48881;SDS011;57063;51.406;-2.402;2023-06-14T08:08:50;6.65;;;2.55;;
48881;SDS011;57063;51.406;-2.402;2023-06-14T08:11:15;5.85;;;2.33;;
48881;SDS011;57063;51.406;-2.402;2023-06-14T08:13:41;6.30;;;1.70;;
48881;SDS011;57063;51.406;-2.402;2023-06-14T08:16:06;11.38;;;2.00;;
48881;SDS011;57063;51.406;-2.402;2023-06-14T08:18:32;5.57;;;1.98;;
48881;SDS011;57063;51.406;-2.402;2023-06-14T08:20:57;3.78;;;1.55;;
48881;SDS011;57063;51.406;-2.402;2023-06-14T08:23:23;10.82;;;2.00;;
48881;SDS011;57063;51.406;-2.402;2023-06-14T08:25:48;5.40;;;1.67;;
48881;SDS011;57063;51.406;-2.402;2023-06-14T08:28:14;5.22;;;1.88;;
48881;SDS011;57063;51.406;-2.402;2023-06-14T08:30:39;3.92;;;1.67;;
48881;SDS011;57063;51.406;-2.402;2023-06-14T08:33:05;3.65;;;1.70;;
48881;SDS011;57063;51.406;-2.402;2023-06-14T08:35:32;4.10;;;1.70;;
48881;SDS011;57063;51.406;-2.402;2023-06-14T08:40:28;6.80;;;1.63;;
48881;SDS011;57063;51.406;-2.402;2023-06-14T08:42:55;5.63;;;2.10;;
48881;SDS011;57063;51.406;-2.402;2023-06-14T08:45:21;5.93;;;2.38;;
48881;SDS011;57063;51.406;-2.402;2023-06-14T08:47:47;6.28;;;2.22;;
48881;SDS011;57063;51.406;-2.402;2023-06-14T08:50:20;8.60;;;2.38;;
48881;SDS011;57063;51.406;-2.402;2023-06-14T08:52:47;5.43;;;1.50;;
48881;SDS011;57063;51.406;-2.402;2023-06-14T08:55:17;5.90;;;1.75;;
48881;SDS011;57063;51.406;-2.402;2023-06-14T08:57:45;6.20;;;1.73;;
48881;SDS011;57063;51.406;-2.402;2023-06-14T09:00:13;3.25;;;1.65;;
48881;SDS011;57063;51.406;-2.402;2023-06-14T09:02:39;5.63;;;1.40;;
48881;SDS011;57063;51.406;-2.402;2023-06-14T09:05:09;7.50;;;1.85;;
48881;SDS011;57063;51.406;-2.402;2023-06-14T09:07:36;8.18;;;2.03;;
48881;SDS011;57063;51.406;-2.402;2023-06-14T09:12:36;9.07;;;1.80;;
48881;SDS011;57063;51.406;-2.402;2023-06-14T09:15:02;8.98;;;1.63;;
48881;SDS011;57063;51.406;-2.402;2023-06-14T09:17:34;9.93;;;1.80;;
48881;SDS011;57063;51.406;-2.402;2023-06-14T09:20:02;4.00;;;1.70;;
48881;SDS011;57063;51.406;-2.402;2023-06-14T09:22:32;7.53;;;1.77;;
48881;SDS011;57063;51.406;-2.402;2023-06-14T09:24:58;5.25;;;1.60;;
48881;SDS011;57063;51.406;-2.402;2023-06-14T09:27:27;3.72;;;1.73;;
48881;SDS011;57063;51.406;-2.402;2023-06-14T09:29:54;5.32;;;1.70;;
48881;SDS011;57063;51.406;-2.402;2023-06-14T09:32:20;6.35;;;1.50;;
48881;SDS011;57063;51.406;-2.402;2023-06-14T09:34:46;7.25;;;1.63;;
48881;SDS011;57063;51.406;-2.402;2023-06-14T09:37:11;5.70;;;1.50;;
48881;SDS011;57063;51.406;-2.402;2023-06-14T09:39:49;8.20;;;1.67;;
48881;SDS011;57063;51.406;-2.402;2023-06-14T09:42:16;4.53;;;1.58;;
48881;SDS011;57063;51.406;-2.402;2023-06-14T09:44:48;3.13;;;1.20;;
48881;SDS011;57063;51.406;-2.402;2023-06-14T09:47:17;5.00;;;1.60;;
48881;SDS011;57063;51.406;-2.402;2023-06-14T09:49:43;3.95;;;1.80;;
48881;SDS011;57063;51.406;-2.402;2023-06-14T09:52:16;5.75;;;1.40;;
48881;SDS011;57063;51.406;-2.402;2023-06-14T09:54:43;3.60;;;1.65;;
48881;SDS011;57063;51.406;-2.402;2023-06-14T09:57:11;5.05;;;1.60;;
48881;SDS011;57063;51.406;-2.402;2023-06-14T09:59:40;3.70;;;1.60;;
48881;SDS011;57063;51.406;-2.402;2023-06-14T10:02:10;7.10;;;2.00;;
48881;SDS011;57063;51.406;-2.402;2023-06-14T10:05:03;7.05;;;1.65;;
48881;SDS011;57063;51.406;-2.402;2023-06-14T10:07:42;6.22;;;1.60;;
48881;SDS011;57063;51.406;-2.402;2023-06-14T10:10:13;4.57;;;1.80;;
48881;SDS011;57063;51.406;-2.402;2023-06-14T10:12:39;5.35;;;1.80;;
48881;SDS011;57063;51.406;-2.402;2023-06-14T10:15:05;3.60;;;1.67;;
48881;SDS011;57063;51.406;-2.402;2023-06-14T10:20:21;3.25;;;1.33;;
48881;SDS011;57063;51.406;-2.402;2023-06-14T10:23:03;4.90;;;1.60;;
48881;SDS011;57063;51.406;-2.402;2023-06-14T10:25:35;5.78;;;1.60;;
48881;SDS011;57063;51.406;-2.402;2023-06-14T10:28:19;5.65;;;1.70;;
48881;SDS011;57063;51.406;-2.402;2023-06-14T10:36:30;7.88;;;1.67;;
48881;SDS011;57063;51.406;-2.402;2023-06-14T10:39:06;6.15;;;2.28;;
48881;SDS011;57063;51.406;-2.402;2023-06-14T10:41:54;5.07;;;1.92;;
48881;SDS011;57063;51.406;-2.402;2023-06-14T10:46:46;3.67;;;1.85;;
48881;SDS011;57063;51.406;-2.402;2023-06-14T10:49:16;14.20;;;2.20;;
48881;SDS011;57063;51.406;-2.402;2023-06-14T10:51:44;4.13;;;1.67;;
48881;SDS011;57063;51.406;-2.402;2023-06-14T10:54:14;7.78;;;1.90;;
48881;SDS011;57063;51.406;-2.402;2023-06-14T10:56:47;6.57;;;2.20;;
48881;SDS011;57063;51.406;-2.402;2023-06-14T10:59:14;4.63;;;1.25;;
48881;SDS011;57063;51.406;-2.402;2023-06-14T11:02:06;10.70;;;1.83;;
48881;SDS011;57063;51.406;-2.402;2023-06-14T11:04:49;5.88;;;1.73;;
48881;SDS011;57063;51.406;-2.402;2023-06-14T11:12:13;3.72;;;1.60;;
48881;SDS011;57063;51.406;-2.402;2023-06-14T11:14:40;4.93;;;2.28;;
48881;SDS011;57063;51.406;-2.402;2023-06-14T11:17:06;4.53;;;1.85;;
48881;SDS011;57063;51.406;-2.402;2023-06-14T11:19:31;9.88;;;2.63;;
48881;SDS011;57063;51.406;-2.402;2023-06-14T11:21:57;3.55;;;1.50;;
48881;SDS011;57063;51.406;-2.402;2023-06-14T11:24:22;3.17;;;1.60;;
48881;SDS011;57063;51.406;-2.402;2023-06-14T11:26:48;9.63;;;2.00;;
48881;SDS011;57063;51.406;-2.402;2023-06-14T11:29:14;3.53;;;1.55;;
48881;SDS011;57063;51.406;-2.402;2023-06-14T11:31:44;3.28;;;1.77;;
48881;SDS011;57063;51.406;-2.402;2023-06-14T11:34:12;6.93;;;1.60;;
48881;SDS011;57063;51.406;-2.402;2023-06-14T11:36:39;3.75;;;1.40;;
48881;SDS011;57063;51.406;-2.402;2023-06-14T11:39:05;2.83;;;1.70;;
48881;SDS011;57063;51.406;-2.402;2023-06-14T11:41:35;1.58;;;1.17;;
48881;SDS011;57063;51.406;-2.402;2023-06-14T11:44:02;6.28;;;2.30;;
48881;SDS011;57063;51.406;-2.402;2023-06-14T11:46:28;4.05;;;2.10;;
48881;SDS011;57063;51.406;-2.402;2023-06-14T11:48:54;3.58;;;1.75;;
48881;SDS011;57063;51.406;-2.402;2023-06-14T11:51:19;3.40;;;1.75;;
48881;SDS011;57063;51.406;-2.402;2023-06-14T11:53:47;2.95;;;1.88;;
48881;SDS011;57063;51.406;-2.402;2023-06-14T11:56:14;6.35;;;2.03;;
48881;SDS011;57063;51.406;-2.402;2023-06-14T11:58:42;2.80;;;2.30;;
48881;SDS011;57063;51.406;-2.402;2023-06-14T12:01:08;4.18;;;1.70;;
48881;SDS011;57063;51.406;-2.402;2023-06-14T12:03:34;4.53;;;1.90;;
48881;SDS011;57063;51.406;-2.402;2023-06-14T12:06:10;3.17;;;2.10;;
48881;SDS011;57063;51.406;-2.402;2023-06-14T12:09:06;3.13;;;1.90;;
48881;SDS011;57063;51.406;-2.402;2023-06-14T12:11:37;5.05;;;2.50;;
48881;SDS011;57063;51.406;-2.402;2023-06-14T12:14:03;6.18;;;2.28;;
48881;SDS011;57063;51.406;-2.402;2023-06-14T12:16:30;5.00;;;1.90;;
48881;SDS011;57063;51.406;-2.402;2023-06-14T12:19:00;4.40;;;2.20;;
48881;SDS011;57063;51.406;-2.402;2023-06-14T12:21:37;7.50;;;2.80;;
48881;SDS011;57063;51.406;-2.402;2023-06-14T12:24:05;3.53;;;2.15;;
48881;SDS011;57063;51.406;-2.402;2023-06-14T12:26:32;5.43;;;2.55;;
48881;SDS011;57063;51.406;-2.402;2023-06-14T12:28:58;2.83;;;2.33;;
48881;SDS011;57063;51.406;-2.402;2023-06-14T12:31:23;4.45;;;2.10;;
48881;SDS011;57063;51.406;-2.402;2023-06-14T12:33:49;5.47;;;2.00;;
48881;SDS011;57063;51.406;-2.402;2023-06-14T12:36:15;7.85;;;2.50;;
48881;SDS011;57063;51.406;-2.402;2023-06-14T12:38:41;2.85;;;2.25;;
48881;SDS011;57063;51.406;-2.402;2023-06-14T12:41:07;8.32;;;2.50;;
48881;SDS011;57063;51.406;-2.402;2023-06-14T12:43:32;4.53;;;2.53;;
48881;SDS011;57063;51.406;-2.402;2023-06-14T12:45:58;5.20;;;2.85;;
48881;SDS011;57063;51.406;-2.402;2023-06-14T12:48:24;4.25;;;2.60;;
48881;SDS011;57063;51.406;-2.402;2023-06-14T12:50:52;3.80;;;2.70;;
48881;SDS011;57063;51.406;-2.402;2023-06-14T12:53:17;6.25;;;2.67;;
48881;SDS011;57063;51.406;-2.402;2023-06-14T12:55:43;5.47;;;2.70;;
48881;SDS011;57063;51.406;-2.402;2023-06-14T12:58:08;7.40;;;2.33;;
48881;SDS011;57063;51.406;-2.402;2023-06-14T13:00:34;6.85;;;2.50;;
48881;SDS011;57063;51.406;-2.402;2023-06-14T13:03:00;5.78;;;2.33;;
48881;SDS011;57063;51.406;-2.402;2023-06-14T13:05:26;8.52;;;2.72;;
48881;SDS011;57063;51.406;-2.402;2023-06-14T13:07:51;5.97;;;2.15;;
48881;SDS011;57063;51.406;-2.402;2023-06-14T13:10:17;10.10;;;3.10;;
48881;SDS011;57063;51.406;-2.402;2023-06-14T13:12:42;6.40;;;2.88;;
48881;SDS011;57063;51.406;-2.402;2023-06-14T13:15:08;6.00;;;2.58;;
48881;SDS011;57063;51.406;-2.402;2023-06-14T13:17:34;9.57;;;3.25;;
48881;SDS011;57063;51.406;-2.402;2023-06-14T13:20:04;4.95;;;2.35;;
48881;SDS011;57063;51.406;-2.402;2023-06-14T13:22:30;5.30;;;3.03;;
48881;SDS011;57063;51.406;-2.402;2023-06-14T13:24:56;8.63;;;2.42;;
48881;SDS011;57063;51.406;-2.402;2023-06-14T13:27:21;8.05;;;3.25;;
48881;SDS011;57063;51.406;-2.402;2023-06-14T13:29:47;11.90;;;3.90;;
48881;SDS011;57063;51.406;-2.402;2023-06-14T13:32:12;7.15;;;2.95;;
48881;SDS011;57063;51.406;-2.402;2023-06-14T13:34:37;8.25;;;3.13;;
48881;SDS011;57063;51.406;-2.402;2023-06-14T13:37:03;7.35;;;2.83;;
48881;SDS011;57063;51.406;-2.402;2023-06-14T13:39:28;6.60;;;2.85;;
48881;SDS011;57063;51.406;-2.402;2023-06-14T13:41:54;8.07;;;3.30;;
48881;SDS011;57063;51.406;-2.402;2023-06-14T13:44:19;7.50;;;3.30;;
48881;SDS011;57063;51.406;-2.402;2023-06-14T13:46:46;6.75;;;2.97;;
48881;SDS011;57063;51.406;-2.402;2023-06-14T13:49:12;7.05;;;2.97;;
48881;SDS011;57063;51.406;-2.402;2023-06-14T13:51:37;6.57;;;3.53;;
48881;SDS011;57063;51.406;-2.402;2023-06-14T13:54:03;7.45;;;3.22;;
48881;SDS011;57063;51.406;-2.402;2023-06-14T13:56:28;4.70;;;3.00;;
48881;SDS011;57063;51.406;-2.402;2023-06-14T13:58:54;8.18;;;3.30;;
48881;SDS011;57063;51.406;-2.402;2023-06-14T14:01:21;8.82;;;2.92;;
48881;SDS011;57063;51.406;-2.402;2023-06-14T14:03:47;7.43;;;3.25;;
48881;SDS011;57063;51.406;-2.402;2023-06-14T14:06:14;9.07;;;3.15;;
48881;SDS011;57063;51.406;-2.402;2023-06-14T14:08:40;10.00;;;3.22;;
48881;SDS011;57063;51.406;-2.402;2023-06-14T14:11:06;4.47;;;2.80;;
48881;SDS011;57063;51.406;-2.402;2023-06-14T14:13:32;4.93;;;3.30;;
48881;SDS011;57063;51.406;-2.402;2023-06-14T14:16:02;6.38;;;3.10;;
48881;SDS011;57063;51.406;-2.402;2023-06-14T14:18:28;9.35;;;3.40;;
48881;SDS011;57063;51.406;-2.402;2023-06-14T14:20:54;5.72;;;2.65;;
48881;SDS011;57063;51.406;-2.402;2023-06-14T14:23:20;5.55;;;3.05;;
48881;SDS011;57063;51.406;-2.402;2023-06-14T14:25:47;7.88;;;2.83;;
48881;SDS011;57063;51.406;-2.402;2023-06-14T14:28:12;5.05;;;2.85;;
48881;SDS011;57063;51.406;-2.402;2023-06-14T14:30:40;6.22;;;3.17;;
48881;SDS011;57063;51.406;-2.402;2023-06-14T14:33:08;5.80;;;3.40;;
48881;SDS011;57063;51.406;-2.402;2023-06-14T14:35:36;7.53;;;3.83;;
48881;SDS011;57063;51.406;-2.402;2023-06-14T14:38:02;8.10;;;3.50;;
48881;SDS011;57063;51.406;-2.402;2023-06-14T14:40:28;5.25;;;3.13;;
48881;SDS011;57063;51.406;-2.402;2023-06-14T14:42:54;8.68;;;4.00;;
48881;SDS011;57063;51.406;-2.402;2023-06-14T14:45:19;8.60;;;3.58;;
48881;SDS011;57063;51.406;-2.402;2023-06-14T14:47:44;5.40;;;3.13;;
48881;SDS011;57063;51.406;-2.402;2023-06-14T14:50:10;4.80;;;3.45;;
48881;SDS011;57063;51.406;-2.402;2023-06-14T14:52:35;8.05;;;4.20;;